sensor_id;sensor_type;location;lat;lon;timestamp;temperature;humidity
26537;DHT22;14204;51.262;5.488;2023-03-14T00:00:31;13.10;99.90
26537;DHT22;14204;51.262;5.488;2023-03-14T00:02:57;13.00;99.90
26537;DHT22;14204;51.262;5.488;2023-03-14T00:05:23;13.00;99.90
26537;DHT22;14204;51.262;5.488;2023-03-14T00:07:49;13.00;99.90
26537;DHT22;14204;51.262;5.488;2023-03-14T00:10:15;13.00;99.90
26537;DHT22;14204;51.262;5.488;2023-03-14T00:12:41;13.00;99.90
26537;DHT22;14204;51.262;5.488;2023-03-14T00:15:07;13.00;99.90
26537;DHT22;14204;51.262;5.488;2023-03-14T00:17:35;12.90;99.90
26537;DHT22;14204;51.262;5.488;2023-03-14T00:20:01;12.90;99.90
26537;DHT22;14204;51.262;5.488;2023-03-14T00:22:36;12.90;99.90
26537;DHT22;14204;51.262;5.488;2023-03-14T00:25:03;12.90;99.90
26537;DHT22;14204;51.262;5.488;2023-03-14T00:27:30;12.90;99.90
26537;DHT22;14204;51.262;5.488;2023-03-14T00:29:56;12.70;99.90
26537;DHT22;14204;51.262;5.488;2023-03-14T00:32:21;12.70;99.90
26537;DHT22;14204;51.262;5.488;2023-03-14T00:34:47;12.70;99.90
26537;DHT22;14204;51.262;5.488;2023-03-14T00:37:13;12.60;99.90
26537;DHT22;14204;51.262;5.488;2023-03-14T00:39:39;12.60;99.90
26537;DHT22;14204;51.262;5.488;2023-03-14T00:42:04;12.70;99.90
26537;DHT22;14204;51.262;5.488;2023-03-14T00:44:30;12.60;99.90
26537;DHT22;14204;51.262;5.488;2023-03-14T00:46:57;12.70;99.90
26537;DHT22;14204;51.262;5.488;2023-03-14T00:49:23;12.70;99.90
26537;DHT22;14204;51.262;5.488;2023-03-14T00:51:49;12.70;99.90
26537;DHT22;14204;51.262;5.488;2023-03-14T00:54:15;12.80;99.90
26537;DHT22;14204;51.262;5.488;2023-03-14T00:56:40;12.80;99.90
26537;DHT22;14204;51.262;5.488;2023-03-14T00:59:06;12.70;99.90
26537;DHT22;14204;51.262;5.488;2023-03-14T01:01:32;12.80;99.90
26537;DHT22;14204;51.262;5.488;2023-03-14T01:03:57;12.70;99.90
26537;DHT22;14204;51.262;5.488;2023-03-14T01:06:25;12.70;99.90
26537;DHT22;14204;51.262;5.488;2023-03-14T01:08:52;12.80;99.90
26537;DHT22;14204;51.262;5.488;2023-03-14T01:11:21;12.70;99.90
26537;DHT22;14204;51.262;5.488;2023-03-14T01:13:47;12.70;99.90
26537;DHT22;14204;51.262;5.488;2023-03-14T01:16:14;12.70;99.90
26537;DHT22;14204;51.262;5.488;2023-03-14T01:18:41;12.70;99.90
26537;DHT22;14204;51.262;5.488;2023-03-14T01:21:21;12.70;99.90
26537;DHT22;14204;51.262;5.488;2023-03-14T01:23:48;12.60;99.90
26537;DHT22;14204;51.262;5.488;2023-03-14T01:26:16;12.60;99.90
26537;DHT22;14204;51.262;5.488;2023-03-14T01:28:44;12.60;99.90
26537;DHT22;14204;51.262;5.488;2023-03-14T01:31:11;12.60;99.90
26537;DHT22;14204;51.262;5.488;2023-03-14T01:33:37;12.50;99.90
26537;DHT22;14204;51.262;5.488;2023-03-14T01:36:04;12.50;99.90
26537;DHT22;14204;51.262;5.488;2023-03-14T01:38:31;12.50;99.90
26537;DHT22;14204;51.262;5.488;2023-03-14T01:40:57;12.30;99.90
26537;DHT22;14204;51.262;5.488;2023-03-14T01:43:24;12.40;99.90
26537;DHT22;14204;51.262;5.488;2023-03-14T01:48:31;12.30;99.90
26537;DHT22;14204;51.262;5.488;2023-03-14T01:50:59;12.30;99.90
26537;DHT22;14204;51.262;5.488;2023-03-14T01:53:26;12.20;99.90
26537;DHT22;14204;51.262;5.488;2023-03-14T01:55:54;12.20;99.90
26537;DHT22;14204;51.262;5.488;2023-03-14T01:58:22;12.20;99.90
26537;DHT22;14204;51.262;5.488;2023-03-14T02:00:51;12.30;99.90
26537;DHT22;14204;51.262;5.488;2023-03-14T02:03:20;12.30;99.90
26537;DHT22;14204;51.262;5.488;2023-03-14T02:05:47;12.20;99.90
26537;DHT22;14204;51.262;5.488;2023-03-14T02:08:20;12.10;99.90
26537;DHT22;14204;51.262;5.488;2023-03-14T02:10:49;12.20;99.90
26537;DHT22;14204;51.262;5.488;2023-03-14T02:13:17;12.10;99.90
26537;DHT22;14204;51.262;5.488;2023-03-14T02:15:44;12.10;99.90
26537;DHT22;14204;51.262;5.488;2023-03-14T02:18:10;12.10;99.90
26537;DHT22;14204;51.262;5.488;2023-03-14T02:26:12;12.20;99.90
26537;DHT22;14204;51.262;5.488;2023-03-14T02:28:42;12.20;99.90
26537;DHT22;14204;51.262;5.488;2023-03-14T02:31:07;12.20;99.90
26537;DHT22;14204;51.262;5.488;2023-03-14T02:33:35;12.20;99.90
26537;DHT22;14204;51.262;5.488;2023-03-14T02:36:05;12.20;99.90
26537;DHT22;14204;51.262;5.488;2023-03-14T02:38:52;12.20;99.90
26537;DHT22;14204;51.262;5.488;2023-03-14T02:41:20;12.20;99.90
26537;DHT22;14204;51.262;5.488;2023-03-14T02:43:46;12.20;99.90
26537;DHT22;14204;51.262;5.488;2023-03-14T02:46:14;12.20;99.90
26537;DHT22;14204;51.262;5.488;2023-03-14T02:49:03;12.20;99.90
26537;DHT22;14204;51.262;5.488;2023-03-14T02:51:29;12.30;99.90
26537;DHT22;14204;51.262;5.488;2023-03-14T02:53:55;12.20;99.90
26537;DHT22;14204;51.262;5.488;2023-03-14T02:56:21;12.10;99.90
26537;DHT22;14204;51.262;5.488;2023-03-14T02:58:47;12.20;99.90
26537;DHT22;14204;51.262;5.488;2023-03-14T03:01:13;12.10;99.90
26537;DHT22;14204;51.262;5.488;2023-03-14T03:03:38;12.20;99.90
26537;DHT22;14204;51.262;5.488;2023-03-14T03:06:04;12.10;99.90
26537;DHT22;14204;51.262;5.488;2023-03-14T03:08:31;12.10;99.90
26537;DHT22;14204;51.262;5.488;2023-03-14T03:10:57;12.10;99.90
26537;DHT22;14204;51.262;5.488;2023-03-14T03:13:23;12.10;99.90
26537;DHT22;14204;51.262;5.488;2023-03-14T03:15:49;12.10;99.90
26537;DHT22;14204;51.262;5.488;2023-03-14T03:18:15;12.10;99.90
26537;DHT22;14204;51.262;5.488;2023-03-14T03:20:41;12.10;99.90
26537;DHT22;14204;51.262;5.488;2023-03-14T03:23:06;12.10;99.90
26537;DHT22;14204;51.262;5.488;2023-03-14T03:25:32;12.10;99.90
26537;DHT22;14204;51.262;5.488;2023-03-14T03:27:58;12.00;99.90
26537;DHT22;14204;51.262;5.488;2023-03-14T03:30:24;12.10;99.90
26537;DHT22;14204;51.262;5.488;2023-03-14T03:32:50;12.10;99.90
26537;DHT22;14204;51.262;5.488;2023-03-14T03:35:16;12.10;99.90
26537;DHT22;14204;51.262;5.488;2023-03-14T03:37:41;12.00;99.90
26537;DHT22;14204;51.262;5.488;2023-03-14T03:40:08;12.00;99.90
26537;DHT22;14204;51.262;5.488;2023-03-14T03:42:34;11.90;99.90
26537;DHT22;14204;51.262;5.488;2023-03-14T03:45:00;11.80;99.90
26537;DHT22;14204;51.262;5.488;2023-03-14T03:47:26;11.80;99.90
26537;DHT22;14204;51.262;5.488;2023-03-14T03:49:52;11.80;99.90
26537;DHT22;14204;51.262;5.488;2023-03-14T03:52:18;11.80;99.90
26537;DHT22;14204;51.262;5.488;2023-03-14T03:54:43;11.70;99.90
26537;DHT22;14204;51.262;5.488;2023-03-14T03:57:09;11.70;99.90
26537;DHT22;14204;51.262;5.488;2023-03-14T03:59:35;11.70;99.90
26537;DHT22;14204;51.262;5.488;2023-03-14T04:02:00;11.70;99.90
26537;DHT22;14204;51.262;5.488;2023-03-14T04:04:26;11.70;99.90
26537;DHT22;14204;51.262;5.488;2023-03-14T04:06:52;11.70;99.90
26537;DHT22;14204;51.262;5.488;2023-03-14T04:09:17;11.60;99.90
26537;DHT22;14204;51.262;5.488;2023-03-14T04:11:43;11.60;99.90
26537;DHT22;14204;51.262;5.488;2023-03-14T04:14:09;11.60;99.90
26537;DHT22;14204;51.262;5.488;2023-03-14T04:16:35;11.50;99.90
26537;DHT22;14204;51.262;5.488;2023-03-14T04:19:01;11.60;99.90
26537;DHT22;14204;51.262;5.488;2023-03-14T04:21:27;11.50;99.90
26537;DHT22;14204;51.262;5.488;2023-03-14T04:23:52;11.50;99.90
26537;DHT22;14204;51.262;5.488;2023-03-14T04:26:18;11.50;99.90
26537;DHT22;14204;51.262;5.488;2023-03-14T04:28:44;11.60;99.90
26537;DHT22;14204;51.262;5.488;2023-03-14T04:31:12;11.50;99.90
26537;DHT22;14204;51.262;5.488;2023-03-14T04:33:38;11.50;99.90
26537;DHT22;14204;51.262;5.488;2023-03-14T04:36:05;11.50;99.90
26537;DHT22;14204;51.262;5.488;2023-03-14T04:38:31;11.50;99.90
26537;DHT22;14204;51.262;5.488;2023-03-14T04:40:57;11.50;99.90
26537;DHT22;14204;51.262;5.488;2023-03-14T04:43:23;11.50;99.90
26537;DHT22;14204;51.262;5.488;2023-03-14T04:45:49;11.50;99.90
26537;DHT22;14204;51.262;5.488;2023-03-14T04:48:14;11.40;99.90
26537;DHT22;14204;51.262;5.488;2023-03-14T04:50:40;11.40;99.90
26537;DHT22;14204;51.262;5.488;2023-03-14T04:53:06;11.40;99.90
26537;DHT22;14204;51.262;5.488;2023-03-14T04:55:32;11.40;99.90
26537;DHT22;14204;51.262;5.488;2023-03-14T04:57:58;11.50;99.90
26537;DHT22;14204;51.262;5.488;2023-03-14T05:00:24;11.60;99.90
26537;DHT22;14204;51.262;5.488;2023-03-14T05:02:50;11.50;99.90
26537;DHT22;14204;51.262;5.488;2023-03-14T05:05:16;11.40;99.90
26537;DHT22;14204;51.262;5.488;2023-03-14T05:07:42;11.40;99.90
26537;DHT22;14204;51.262;5.488;2023-03-14T05:10:08;11.50;99.90
26537;DHT22;14204;51.262;5.488;2023-03-14T05:12:34;11.50;99.90
26537;DHT22;14204;51.262;5.488;2023-03-14T05:14:59;11.50;99.90
26537;DHT22;14204;51.262;5.488;2023-03-14T05:17:25;11.50;99.90
26537;DHT22;14204;51.262;5.488;2023-03-14T05:19:51;11.60;99.90
26537;DHT22;14204;51.262;5.488;2023-03-14T05:22:16;11.60;99.90
26537;DHT22;14204;51.262;5.488;2023-03-14T05:24:42;11.70;99.90
26537;DHT22;14204;51.262;5.488;2023-03-14T05:27:08;11.70;99.90
26537;DHT22;14204;51.262;5.488;2023-03-14T05:29:34;11.60;99.90
26537;DHT22;14204;51.262;5.488;2023-03-14T05:31:59;11.60;99.90
26537;DHT22;14204;51.262;5.488;2023-03-14T05:34:25;11.70;99.90
26537;DHT22;14204;51.262;5.488;2023-03-14T05:36:51;11.60;99.90
26537;DHT22;14204;51.262;5.488;2023-03-14T05:39:16;11.70;99.90
26537;DHT22;14204;51.262;5.488;2023-03-14T05:41:42;11.60;99.90
26537;DHT22;14204;51.262;5.488;2023-03-14T05:44:07;11.70;99.90
26537;DHT22;14204;51.262;5.488;2023-03-14T05:46:33;11.70;99.90
26537;DHT22;14204;51.262;5.488;2023-03-14T05:48:59;11.70;99.90
26537;DHT22;14204;51.262;5.488;2023-03-14T05:51:25;11.70;99.90
26537;DHT22;14204;51.262;5.488;2023-03-14T05:53:51;11.70;99.90
26537;DHT22;14204;51.262;5.488;2023-03-14T05:56:17;11.70;99.90
26537;DHT22;14204;51.262;5.488;2023-03-14T05:58:43;11.60;99.90
26537;DHT22;14204;51.262;5.488;2023-03-14T06:01:09;11.60;99.90
26537;DHT22;14204;51.262;5.488;2023-03-14T06:03:34;11.60;99.90
26537;DHT22;14204;51.262;5.488;2023-03-14T06:06:00;11.60;99.90
26537;DHT22;14204;51.262;5.488;2023-03-14T06:08:26;11.60;99.90
26537;DHT22;14204;51.262;5.488;2023-03-14T06:10:52;11.60;99.90
26537;DHT22;14204;51.262;5.488;2023-03-14T06:13:18;11.70;99.90
26537;DHT22;14204;51.262;5.488;2023-03-14T06:15:44;11.80;99.90
26537;DHT22;14204;51.262;5.488;2023-03-14T06:18:10;11.80;99.90
26537;DHT22;14204;51.262;5.488;2023-03-14T06:20:36;11.70;99.90
26537;DHT22;14204;51.262;5.488;2023-03-14T06:23:08;11.70;99.90
26537;DHT22;14204;51.262;5.488;2023-03-14T06:25:34;11.70;99.90
26537;DHT22;14204;51.262;5.488;2023-03-14T06:28:00;11.70;99.90
26537;DHT22;14204;51.262;5.488;2023-03-14T06:30:26;11.70;99.90
26537;DHT22;14204;51.262;5.488;2023-03-14T06:32:52;11.70;99.90
26537;DHT22;14204;51.262;5.488;2023-03-14T06:35:18;11.70;99.90
26537;DHT22;14204;51.262;5.488;2023-03-14T06:37:44;11.70;99.90
26537;DHT22;14204;51.262;5.488;2023-03-14T06:40:11;11.70;99.90
26537;DHT22;14204;51.262;5.488;2023-03-14T06:42:42;11.70;99.90
26537;DHT22;14204;51.262;5.488;2023-03-14T06:45:08;11.70;99.90
26537;DHT22;14204;51.262;5.488;2023-03-14T06:47:34;11.80;99.90
26537;DHT22;14204;51.262;5.488;2023-03-14T06:50:00;11.70;99.90
26537;DHT22;14204;51.262;5.488;2023-03-14T06:52:25;11.70;99.90
26537;DHT22;14204;51.262;5.488;2023-03-14T06:54:51;11.80;99.90
26537;DHT22;14204;51.262;5.488;2023-03-14T06:57:17;11.80;99.90
26537;DHT22;14204;51.262;5.488;2023-03-14T06:59:42;11.90;99.90
26537;DHT22;14204;51.262;5.488;2023-03-14T07:02:11;11.90;99.90
26537;DHT22;14204;51.262;5.488;2023-03-14T07:04:38;12.00;99.90
26537;DHT22;14204;51.262;5.488;2023-03-14T07:07:03;12.10;99.90
26537;DHT22;14204;51.262;5.488;2023-03-14T07:09:29;12.10;99.90
26537;DHT22;14204;51.262;5.488;2023-03-14T07:11:55;12.00;99.90
26537;DHT22;14204;51.262;5.488;2023-03-14T07:14:21;12.10;99.90
26537;DHT22;14204;51.262;5.488;2023-03-14T07:16:46;12.20;99.90
26537;DHT22;14204;51.262;5.488;2023-03-14T07:19:12;12.20;99.90
26537;DHT22;14204;51.262;5.488;2023-03-14T07:21:38;12.20;99.90
26537;DHT22;14204;51.262;5.488;2023-03-14T07:24:03;12.20;99.90
26537;DHT22;14204;51.262;5.488;2023-03-14T07:26:29;12.20;99.90
26537;DHT22;14204;51.262;5.488;2023-03-14T07:28:55;12.30;99.90
26537;DHT22;14204;51.262;5.488;2023-03-14T07:31:20;12.10;99.90
26537;DHT22;14204;51.262;5.488;2023-03-14T07:33:46;12.10;99.90
26537;DHT22;14204;51.262;5.488;2023-03-14T07:36:12;12.10;99.90
26537;DHT22;14204;51.262;5.488;2023-03-14T07:38:38;12.10;99.90
26537;DHT22;14204;51.262;5.488;2023-03-14T07:41:05;12.00;99.90
26537;DHT22;14204;51.262;5.488;2023-03-14T07:43:31;12.00;99.90
26537;DHT22;14204;51.262;5.488;2023-03-14T07:45:57;12.00;99.90
26537;DHT22;14204;51.262;5.488;2023-03-14T07:48:24;12.00;99.90
26537;DHT22;14204;51.262;5.488;2023-03-14T07:50:54;11.90;99.90
26537;DHT22;14204;51.262;5.488;2023-03-14T07:53:20;11.70;99.90
26537;DHT22;14204;51.262;5.488;2023-03-14T07:55:46;11.60;99.90
26537;DHT22;14204;51.262;5.488;2023-03-14T07:58:13;11.40;99.90
26537;DHT22;14204;51.262;5.488;2023-03-14T08:00:39;11.30;99.90
26537;DHT22;14204;51.262;5.488;2023-03-14T08:03:04;11.30;99.90
26537;DHT22;14204;51.262;5.488;2023-03-14T08:05:30;11.30;99.90
26537;DHT22;14204;51.262;5.488;2023-03-14T08:07:56;11.30;99.90
26537;DHT22;14204;51.262;5.488;2023-03-14T08:10:22;11.10;99.90
26537;DHT22;14204;51.262;5.488;2023-03-14T08:12:55;11.10;99.90
26537;DHT22;14204;51.262;5.488;2023-03-14T08:15:22;11.10;99.90
26537;DHT22;14204;51.262;5.488;2023-03-14T08:17:48;11.10;99.90
26537;DHT22;14204;51.262;5.488;2023-03-14T08:20:23;11.00;99.90
26537;DHT22;14204;51.262;5.488;2023-03-14T08:22:49;11.00;99.90
26537;DHT22;14204;51.262;5.488;2023-03-14T08:25:15;11.00;99.90
26537;DHT22;14204;51.262;5.488;2023-03-14T08:27:41;10.90;99.90
26537;DHT22;14204;51.262;5.488;2023-03-14T08:30:12;10.90;99.90
26537;DHT22;14204;51.262;5.488;2023-03-14T08:32:38;10.70;99.90
26537;DHT22;14204;51.262;5.488;2023-03-14T08:35:05;10.70;99.90
26537;DHT22;14204;51.262;5.488;2023-03-14T08:37:32;10.70;99.90
26537;DHT22;14204;51.262;5.488;2023-03-14T08:39:58;10.70;99.90
26537;DHT22;14204;51.262;5.488;2023-03-14T08:42:24;10.70;99.90
26537;DHT22;14204;51.262;5.488;2023-03-14T08:44:52;10.60;99.90
26537;DHT22;14204;51.262;5.488;2023-03-14T08:47:19;10.60;99.90
26537;DHT22;14204;51.262;5.488;2023-03-14T08:49:45;10.60;99.90
26537;DHT22;14204;51.262;5.488;2023-03-14T08:52:11;10.70;99.90
26537;DHT22;14204;51.262;5.488;2023-03-14T08:54:36;10.80;99.90
26537;DHT22;14204;51.262;5.488;2023-03-14T08:57:02;10.80;99.90
26537;DHT22;14204;51.262;5.488;2023-03-14T08:59:28;10.80;99.90
26537;DHT22;14204;51.262;5.488;2023-03-14T09:01:53;10.80;99.90
26537;DHT22;14204;51.262;5.488;2023-03-14T09:04:20;10.70;99.90
26537;DHT22;14204;51.262;5.488;2023-03-14T09:06:45;10.60;99.90
26537;DHT22;14204;51.262;5.488;2023-03-14T09:09:11;10.60;99.90
26537;DHT22;14204;51.262;5.488;2023-03-14T09:11:39;10.60;99.90
26537;DHT22;14204;51.262;5.488;2023-03-14T09:14:04;10.70;99.90
26537;DHT22;14204;51.262;5.488;2023-03-14T09:16:30;10.70;99.90
26537;DHT22;14204;51.262;5.488;2023-03-14T09:18:56;10.80;99.90
26537;DHT22;14204;51.262;5.488;2023-03-14T09:21:25;10.60;99.90
26537;DHT22;14204;51.262;5.488;2023-03-14T09:23:51;10.70;99.90
26537;DHT22;14204;51.262;5.488;2023-03-14T09:26:16;10.70;99.90
26537;DHT22;14204;51.262;5.488;2023-03-14T09:28:42;10.90;99.90
26537;DHT22;14204;51.262;5.488;2023-03-14T09:31:09;10.90;99.90
26537;DHT22;14204;51.262;5.488;2023-03-14T09:33:36;10.90;99.90
26537;DHT22;14204;51.262;5.488;2023-03-14T09:36:02;10.90;99.90
26537;DHT22;14204;51.262;5.488;2023-03-14T09:38:28;11.00;99.90
26537;DHT22;14204;51.262;5.488;2023-03-14T09:40:55;10.80;99.90
26537;DHT22;14204;51.262;5.488;2023-03-14T09:43:24;10.90;99.90
26537;DHT22;14204;51.262;5.488;2023-03-14T09:45:51;11.00;99.90
26537;DHT22;14204;51.262;5.488;2023-03-14T09:48:24;11.10;99.90
26537;DHT22;14204;51.262;5.488;2023-03-14T09:50:54;11.10;99.90
26537;DHT22;14204;51.262;5.488;2023-03-14T09:53:24;11.10;99.90
26537;DHT22;14204;51.262;5.488;2023-03-14T09:55:52;11.00;99.90
26537;DHT22;14204;51.262;5.488;2023-03-14T09:58:23;11.10;99.90
26537;DHT22;14204;51.262;5.488;2023-03-14T10:00:50;11.10;99.90
26537;DHT22;14204;51.262;5.488;2023-03-14T10:03:33;10.90;99.90
26537;DHT22;14204;51.262;5.488;2023-03-14T10:05:59;10.90;99.90
26537;DHT22;14204;51.262;5.488;2023-03-14T10:08:25;10.80;99.90
26537;DHT22;14204;51.262;5.488;2023-03-14T10:10:50;10.80;99.90
26537;DHT22;14204;51.262;5.488;2023-03-14T10:13:26;10.80;99.90
26537;DHT22;14204;51.262;5.488;2023-03-14T10:18:18;10.80;99.90
26537;DHT22;14204;51.262;5.488;2023-03-14T10:20:50;10.60;99.90
26537;DHT22;14204;51.262;5.488;2023-03-14T10:23:29;10.70;99.90
26537;DHT22;14204;51.262;5.488;2023-03-14T10:28:33;10.60;99.90
26537;DHT22;14204;51.262;5.488;2023-03-14T10:31:00;10.50;99.90
26537;DHT22;14204;51.262;5.488;2023-03-14T10:33:31;10.40;99.90
26537;DHT22;14204;51.262;5.488;2023-03-14T10:36:31;10.30;99.90
26537;DHT22;14204;51.262;5.488;2023-03-14T10:41:50;10.30;99.90
26537;DHT22;14204;51.262;5.488;2023-03-14T10:44:21;10.30;99.90
26537;DHT22;14204;51.262;5.488;2023-03-14T10:46:58;10.30;99.90
26537;DHT22;14204;51.262;5.488;2023-03-14T10:49:35;10.40;99.90
26537;DHT22;14204;51.262;5.488;2023-03-14T10:52:14;10.40;99.90
26537;DHT22;14204;51.262;5.488;2023-03-14T10:54:40;10.50;99.90
26537;DHT22;14204;51.262;5.488;2023-03-14T10:57:06;10.70;99.90
26537;DHT22;14204;51.262;5.488;2023-03-14T10:59:37;10.80;99.90
26537;DHT22;14204;51.262;5.488;2023-03-14T11:02:15;10.90;99.90
26537;DHT22;14204;51.262;5.488;2023-03-14T11:07:41;11.20;99.90
26537;DHT22;14204;51.262;5.488;2023-03-14T11:16:26;11.50;99.90
26537;DHT22;14204;51.262;5.488;2023-03-14T11:18:36;11.40;99.90
26537;DHT22;14204;51.262;5.488;2023-03-14T11:29:40;11.50;99.90
26537;DHT22;14204;51.262;5.488;2023-03-14T11:32:20;11.60;99.90
26537;DHT22;14204;51.262;5.488;2023-03-14T11:34:52;11.50;99.90
26537;DHT22;14204;51.262;5.488;2023-03-14T11:37:34;11.30;99.90
26537;DHT22;14204;51.262;5.488;2023-03-14T11:40:13;11.10;99.90
26537;DHT22;14204;51.262;5.488;2023-03-14T11:42:43;11.10;99.90
26537;DHT22;14204;51.262;5.488;2023-03-14T11:45:18;11.00;99.90
26537;DHT22;14204;51.262;5.488;2023-03-14T11:47:47;10.80;99.90
26537;DHT22;14204;51.262;5.488;2023-03-14T11:50:27;10.80;99.90
26537;DHT22;14204;51.262;5.488;2023-03-14T11:53:09;11.00;99.90
26537;DHT22;14204;51.262;5.488;2023-03-14T11:55:37;11.10;99.90
26537;DHT22;14204;51.262;5.488;2023-03-14T12:00:47;11.20;99.90
26537;DHT22;14204;51.262;5.488;2023-03-14T12:06:15;11.40;99.90
26537;DHT22;14204;51.262;5.488;2023-03-14T12:08:48;11.70;99.90
26537;DHT22;14204;51.262;5.488;2023-03-14T12:13:51;11.80;99.90
26537;DHT22;14204;51.262;5.488;2023-03-14T12:18:51;11.50;99.90
26537;DHT22;14204;51.262;5.488;2023-03-14T12:21:17;11.60;99.90
26537;DHT22;14204;51.262;5.488;2023-03-14T12:23:54;11.40;99.90
26537;DHT22;14204;51.262;5.488;2023-03-14T12:26:50;11.20;99.90
26537;DHT22;14204;51.262;5.488;2023-03-14T12:29:17;11.00;99.90
26537;DHT22;14204;51.262;5.488;2023-03-14T12:34:30;10.90;99.90
26537;DHT22;14204;51.262;5.488;2023-03-14T12:37:06;11.00;99.90
26537;DHT22;14204;51.262;5.488;2023-03-14T12:39:51;11.10;99.90
26537;DHT22;14204;51.262;5.488;2023-03-14T12:42:43;11.10;99.90
26537;DHT22;14204;51.262;5.488;2023-03-14T12:45:29;11.30;99.90
26537;DHT22;14204;51.262;5.488;2023-03-14T12:47:57;11.20;99.90
26537;DHT22;14204;51.262;5.488;2023-03-14T12:50:35;11.30;99.90
26537;DHT22;14204;51.262;5.488;2023-03-14T13:01:24;11.70;99.90
26537;DHT22;14204;51.262;5.488;2023-03-14T13:03:51;11.50;99.90
26537;DHT22;14204;51.262;5.488;2023-03-14T13:12:10;11.50;99.90
26537;DHT22;14204;51.262;5.488;2023-03-14T13:14:40;11.40;99.90
26537;DHT22;14204;51.262;5.488;2023-03-14T13:17:10;11.40;99.90
26537;DHT22;14204;51.262;5.488;2023-03-14T13:19:38;11.40;99.90
26537;DHT22;14204;51.262;5.488;2023-03-14T13:22:21;11.30;99.90
26537;DHT22;14204;51.262;5.488;2023-03-14T13:25:09;11.50;99.90
26537;DHT22;14204;51.262;5.488;2023-03-14T13:27:38;11.50;99.90
26537;DHT22;14204;51.262;5.488;2023-03-14T13:32:43;11.50;99.90
26537;DHT22;14204;51.262;5.488;2023-03-14T13:35:23;11.60;99.90
26537;DHT22;14204;51.262;5.488;2023-03-14T13:38:00;11.60;99.90
26537;DHT22;14204;51.262;5.488;2023-03-14T13:40:31;11.60;99.90
26537;DHT22;14204;51.262;5.488;2023-03-14T13:43:21;11.60;99.90
26537;DHT22;14204;51.262;5.488;2023-03-14T13:48:55;11.60;99.90
26537;DHT22;14204;51.262;5.488;2023-03-14T13:51:22;11.60;99.90
26537;DHT22;14204;51.262;5.488;2023-03-14T13:53:49;11.40;99.90
26537;DHT22;14204;51.262;5.488;2023-03-14T13:56:23;11.50;99.90
26537;DHT22;14204;51.262;5.488;2023-03-14T13:58:49;11.40;99.90
26537;DHT22;14204;51.262;5.488;2023-03-14T14:03:51;11.40;99.90
26537;DHT22;14204;51.262;5.488;2023-03-14T14:06:34;11.40;99.90
26537;DHT22;14204;51.262;5.488;2023-03-14T14:09:04;11.40;99.90
26537;DHT22;14204;51.262;5.488;2023-03-14T14:14:17;11.20;99.90
26537;DHT22;14204;51.262;5.488;2023-03-14T14:16:45;11.20;99.90
26537;DHT22;14204;51.262;5.488;2023-03-14T14:19:13;11.20;99.90
26537;DHT22;14204;51.262;5.488;2023-03-14T14:21:40;11.10;99.90
26537;DHT22;14204;51.262;5.488;2023-03-14T14:24:07;11.10;99.90
26537;DHT22;14204;51.262;5.488;2023-03-14T14:26:33;11.00;99.90
26537;DHT22;14204;51.262;5.488;2023-03-14T14:29:05;11.20;99.90
26537;DHT22;14204;51.262;5.488;2023-03-14T14:31:31;11.20;99.90
26537;DHT22;14204;51.262;5.488;2023-03-14T14:34:02;11.20;99.90
26537;DHT22;14204;51.262;5.488;2023-03-14T14:36:39;11.10;99.90
26537;DHT22;14204;51.262;5.488;2023-03-14T14:39:23;11.20;99.90
26537;DHT22;14204;51.262;5.488;2023-03-14T14:41:51;11.10;99.90
26537;DHT22;14204;51.262;5.488;2023-03-14T14:44:28;11.20;99.90
26537;DHT22;14204;51.262;5.488;2023-03-14T14:46:55;11.10;99.90
26537;DHT22;14204;51.262;5.488;2023-03-14T14:49:29;11.20;99.90
26537;DHT22;14204;51.262;5.488;2023-03-14T14:52:01;11.10;99.90
26537;DHT22;14204;51.262;5.488;2023-03-14T14:54:35;11.10;99.90
26537;DHT22;14204;51.262;5.488;2023-03-14T14:57:04;11.10;99.90
26537;DHT22;14204;51.262;5.488;2023-03-14T14:59:30;11.00;99.90
26537;DHT22;14204;51.262;5.488;2023-03-14T15:02:01;11.00;99.90
26537;DHT22;14204;51.262;5.488;2023-03-14T15:04:30;11.00;99.90
26537;DHT22;14204;51.262;5.488;2023-03-14T15:06:56;10.90;99.90
26537;DHT22;14204;51.262;5.488;2023-03-14T15:09:21;10.90;99.90
26537;DHT22;14204;51.262;5.488;2023-03-14T15:11:48;10.90;99.90
26537;DHT22;14204;51.262;5.488;2023-03-14T15:14:14;10.80;99.90
26537;DHT22;14204;51.262;5.488;2023-03-14T15:16:40;10.80;99.90
26537;DHT22;14204;51.262;5.488;2023-03-14T15:19:16;10.80;99.90
26537;DHT22;14204;51.262;5.488;2023-03-14T15:21:42;10.70;99.90
26537;DHT22;14204;51.262;5.488;2023-03-14T15:24:09;10.70;99.90
26537;DHT22;14204;51.262;5.488;2023-03-14T15:26:35;10.50;99.90
26537;DHT22;14204;51.262;5.488;2023-03-14T15:29:00;10.40;99.90
26537;DHT22;14204;51.262;5.488;2023-03-14T15:31:26;10.50;99.90
26537;DHT22;14204;51.262;5.488;2023-03-14T15:33:52;10.50;99.90
26537;DHT22;14204;51.262;5.488;2023-03-14T15:36:23;10.40;99.90
26537;DHT22;14204;51.262;5.488;2023-03-14T15:38:51;10.40;99.90
26537;DHT22;14204;51.262;5.488;2023-03-14T15:41:17;10.40;99.90
26537;DHT22;14204;51.262;5.488;2023-03-14T15:43:43;10.30;99.90
26537;DHT22;14204;51.262;5.488;2023-03-14T15:46:10;10.30;99.90
26537;DHT22;14204;51.262;5.488;2023-03-14T15:48:36;10.30;99.90
26537;DHT22;14204;51.262;5.488;2023-03-14T15:51:02;10.30;99.90
26537;DHT22;14204;51.262;5.488;2023-03-14T15:53:28;10.30;99.90
26537;DHT22;14204;51.262;5.488;2023-03-14T15:55:54;10.30;99.90
26537;DHT22;14204;51.262;5.488;2023-03-14T15:58:20;10.20;99.90
26537;DHT22;14204;51.262;5.488;2023-03-14T16:00:46;10.30;99.90
26537;DHT22;14204;51.262;5.488;2023-03-14T16:03:12;10.30;99.90
26537;DHT22;14204;51.262;5.488;2023-03-14T16:05:39;10.30;99.90
26537;DHT22;14204;51.262;5.488;2023-03-14T16:08:05;10.20;99.90
26537;DHT22;14204;51.262;5.488;2023-03-14T16:10:31;10.20;99.90
26537;DHT22;14204;51.262;5.488;2023-03-14T16:12:57;10.20;99.90
26537;DHT22;14204;51.262;5.488;2023-03-14T16:15:23;10.20;99.90
26537;DHT22;14204;51.262;5.488;2023-03-14T16:17:55;10.10;99.90
26537;DHT22;14204;51.262;5.488;2023-03-14T16:20:22;10.10;99.90
26537;DHT22;14204;51.262;5.488;2023-03-14T16:22:48;10.00;99.90
26537;DHT22;14204;51.262;5.488;2023-03-14T16:25:14;9.90;99.90
26537;DHT22;14204;51.262;5.488;2023-03-14T16:27:40;9.80;99.90
26537;DHT22;14204;51.262;5.488;2023-03-14T16:30:07;9.80;99.90
26537;DHT22;14204;51.262;5.488;2023-03-14T16:32:33;9.80;99.90
26537;DHT22;14204;51.262;5.488;2023-03-14T16:34:59;9.80;99.90
26537;DHT22;14204;51.262;5.488;2023-03-14T16:37:24;9.80;99.90
26537;DHT22;14204;51.262;5.488;2023-03-14T16:39:52;9.80;99.90
26537;DHT22;14204;51.262;5.488;2023-03-14T16:42:19;9.70;99.90
26537;DHT22;14204;51.262;5.488;2023-03-14T16:44:45;9.80;99.90
26537;DHT22;14204;51.262;5.488;2023-03-14T16:47:11;9.80;99.90
26537;DHT22;14204;51.262;5.488;2023-03-14T16:49:37;9.70;99.90